createdAt,value
2018-07-28T00:02:12.198Z,22.06
2018-07-28T00:06:55.863Z,22.00
2018-07-28T00:11:39.862Z,22.44
2018-07-28T00:16:26.896Z,22.18
2018-07-28T00:21:10.408Z,22.19
2018-07-28T00:26:00.380Z,22.29
2018-07-28T00:30:43.983Z,21.96
2018-07-28T00:35:27.761Z,21.85
2018-07-28T00:40:11.233Z,22.05
2018-07-28T00:44:55.037Z,22.36
2018-07-28T00:49:38.644Z,22.42
2018-07-28T00:54:22.438Z,22.17
2018-07-28T00:59:05.832Z,22.37
2018-07-28T01:03:50.457Z,22.44
2018-07-28T01:08:33.939Z,22.24
2018-07-28T01:13:18.584Z,22.38
2018-07-28T01:18:02.174Z,22.38
2018-07-28T01:22:45.671Z,22.37
2018-07-28T01:27:29.124Z,21.98
2018-07-28T01:32:12.605Z,21.99
2018-07-28T01:36:57.350Z,21.52
2018-07-28T01:41:41.912Z,21.64
2018-07-28T01:46:28.511Z,21.77
2018-07-28T01:51:11.973Z,21.82
2018-07-28T01:55:55.678Z,21.82
2018-07-28T02:00:39.313Z,21.95
2018-07-28T02:05:23.110Z,21.85
2018-07-28T02:10:08.074Z,21.93
2018-07-28T02:14:52.711Z,22.07
2018-07-28T02:19:36.317Z,22.13
2018-07-28T02:24:20.197Z,22.00
2018-07-28T02:29:03.742Z,22.18
2018-07-28T02:33:47.027Z,22.04
2018-07-28T02:38:30.611Z,22.05
2018-07-28T02:43:15.260Z,22.06
2018-07-28T02:47:58.675Z,22.04
2018-07-28T02:52:42.378Z,21.91
2018-07-28T02:57:26.029Z,22.05
2018-07-28T03:02:09.591Z,22.17
2018-07-28T03:06:58.240Z,22.16
2018-07-28T03:11:42.285Z,21.90
2018-07-28T03:16:26.009Z,21.80
2018-07-28T03:21:09.447Z,21.88
2018-07-28T03:25:53.496Z,22.03
2018-07-28T03:30:37.001Z,21.89
2018-07-28T03:35:20.477Z,21.87
2018-07-28T03:40:04.593Z,21.96
2018-07-28T03:44:48.209Z,22.04
2018-07-28T03:49:32.439Z,22.04
2018-07-28T03:54:16.225Z,22.04
2018-07-28T03:58:59.851Z,21.97
2018-07-28T04:03:43.491Z,21.44
2018-07-28T04:08:27.162Z,21.94
2018-07-28T04:13:10.755Z,21.89
2018-07-28T04:17:55.446Z,21.88
2018-07-28T04:22:39.216Z,22.00
2018-07-28T04:27:22.894Z,21.99
2018-07-28T04:32:06.432Z,21.89
2018-07-28T04:36:49.960Z,21.92
2018-07-28T04:41:33.445Z,22.06
2018-07-28T04:46:18.231Z,21.87
2018-07-28T04:51:22.381Z,21.78
2018-07-28T04:56:07.955Z,22.05
2018-07-28T05:00:51.464Z,22.07
2018-07-28T05:05:38.356Z,22.13
2018-07-28T05:10:22.044Z,22.20
2018-07-28T05:15:06.722Z,22.20
2018-07-28T05:19:50.352Z,22.20
2018-07-28T05:24:35.489Z,22.25
2018-07-28T05:29:19.126Z,22.26
2018-07-28T05:34:02.963Z,22.34
2018-07-28T05:38:46.444Z,22.39
2018-07-28T05:43:30.153Z,22.45
2018-07-28T05:48:13.836Z,22.48
2018-07-28T05:52:58.490Z,22.59
2018-07-28T05:57:42.310Z,22.61
2018-07-28T06:02:28.239Z,22.67
2018-07-28T06:07:11.611Z,22.62
2018-07-28T06:11:55.228Z,22.50
2018-07-28T06:16:38.703Z,22.61
2018-07-28T06:21:22.127Z,22.61
2018-07-28T06:26:08.942Z,22.71
2018-07-28T06:30:52.408Z,23.01
2018-07-28T06:35:37.411Z,22.83
2018-07-28T06:40:21.344Z,23.04
2018-07-28T06:45:06.660Z,23.15
2018-07-28T06:49:50.138Z,23.11
2018-07-28T06:54:33.711Z,23.21
2018-07-28T06:59:17.376Z,23.07
2018-07-28T07:04:01.009Z,23.30
2018-07-28T07:08:44.608Z,23.21
2018-07-28T07:13:33.079Z,23.33
2018-07-28T07:18:16.720Z,23.20
2018-07-28T07:23:00.339Z,23.11
2018-07-28T07:27:43.976Z,23.12
2018-07-28T07:32:27.413Z,23.52
2018-07-28T07:37:10.841Z,23.81
2018-07-28T07:41:54.533Z,23.57
2018-07-28T07:46:38.030Z,23.77
2018-07-28T07:51:21.980Z,23.69
2018-07-28T07:56:07.030Z,23.52
2018-07-28T08:00:51.612Z,23.62
2018-07-28T08:05:36.556Z,23.43
2018-07-28T08:10:20.125Z,23.49
2018-07-28T08:15:03.885Z,23.51
2018-07-28T08:19:47.562Z,23.48
2018-07-28T08:24:34.331Z,23.80
2018-07-28T08:29:18.336Z,24.03
2018-07-28T08:34:02.003Z,23.96
2018-07-28T08:38:45.544Z,23.97
2018-07-28T08:43:33.530Z,23.78
2018-07-28T08:48:17.157Z,23.74
2018-07-28T08:53:01.229Z,23.78
2018-07-28T08:57:44.901Z,23.74
2018-07-28T09:08:16.973Z,24.13
2018-07-28T09:13:00.890Z,24.51
2018-07-28T09:17:44.578Z,24.62
2018-07-28T09:22:28.314Z,24.66
2018-07-28T09:27:28.513Z,25.04
2018-07-28T09:32:14.693Z,25.08
2018-07-28T09:36:58.678Z,24.84
2018-07-28T09:41:45.760Z,24.65
2018-07-28T09:46:29.545Z,24.85
2018-07-28T09:51:13.185Z,24.74
2018-07-28T09:55:56.987Z,24.40
2018-07-28T10:00:47.234Z,24.60
2018-07-28T10:05:31.105Z,24.26
2018-07-28T10:10:15.028Z,24.52
2018-07-28T10:14:59.664Z,24.60
2018-07-28T10:19:44.200Z,24.33
2018-07-28T10:24:28.264Z,24.81
2018-07-28T10:29:12.353Z,25.00
2018-07-28T10:33:57.383Z,25.05
2018-07-28T10:44:06.749Z,25.61
2018-07-28T10:53:59.372Z,25.09
2018-07-28T10:58:44.616Z,25.63
2018-07-28T11:03:28.131Z,25.55
2018-07-28T11:08:13.215Z,25.56
2018-07-28T11:12:57.992Z,25.41
2018-07-28T11:17:41.640Z,25.35
2018-07-28T11:22:26.358Z,25.33
2018-07-28T11:27:09.808Z,25.27
2018-07-28T11:32:05.022Z,25.35
2018-07-28T11:36:59.251Z,25.28
2018-07-28T11:41:54.463Z,25.22
2018-07-28T11:46:38.997Z,25.33
2018-07-28T11:51:22.777Z,25.44
2018-07-28T11:56:06.336Z,25.41
2018-07-28T12:00:49.787Z,25.53
2018-07-28T12:05:34.413Z,25.68
2018-07-28T12:10:17.918Z,25.59
2018-07-28T12:15:05.853Z,25.84
2018-07-28T12:19:49.452Z,25.92
2018-07-28T12:24:34.179Z,26.15
2018-07-28T12:29:17.774Z,26.49
2018-07-28T12:34:02.273Z,26.63
2018-07-28T12:38:45.824Z,26.84
2018-07-28T12:43:33.005Z,26.43
2018-07-28T12:48:19.464Z,27.00
2018-07-28T12:53:04.753Z,27.28
2018-07-28T12:57:48.213Z,27.15
2018-07-28T13:02:42.417Z,26.99
2018-07-28T13:07:25.885Z,26.67
2018-07-28T13:12:15.478Z,26.81
2018-07-28T13:16:59.086Z,26.74
2018-07-28T13:21:42.588Z,27.68
2018-07-28T13:26:26.158Z,27.30
2018-07-28T13:31:14.544Z,27.40
2018-07-28T13:35:58.084Z,27.38
2018-07-28T13:40:41.714Z,27.81
2018-07-28T13:45:25.454Z,27.81
2018-07-28T13:50:09.196Z,27.95
2018-07-28T13:54:54.733Z,27.94
2018-07-28T13:59:38.357Z,28.06
2018-07-28T14:04:21.934Z,27.33
2018-07-28T14:09:09.747Z,27.08
2018-07-28T14:13:54.617Z,26.85
2018-07-28T14:18:38.159Z,26.76
2018-07-28T14:23:26.920Z,26.65
2018-07-28T14:28:16.686Z,26.67
2018-07-28T14:33:00.403Z,26.72
2018-07-28T14:37:56.693Z,26.70
2018-07-28T14:42:43.769Z,26.91
2018-07-28T14:47:27.311Z,26.93
2018-07-28T14:52:10.942Z,27.04
2018-07-28T14:56:54.543Z,26.91
2018-07-28T15:01:38.226Z,26.67
2018-07-28T15:06:21.796Z,26.55
2018-07-28T15:11:05.484Z,26.43
2018-07-28T15:15:49.021Z,26.47
2018-07-28T15:20:32.643Z,26.49
2018-07-28T15:25:16.040Z,26.53
2018-07-28T15:30:00.083Z,26.53
2018-07-28T15:34:43.642Z,26.54
2018-07-28T15:39:27.163Z,26.53
2018-07-28T15:44:10.678Z,26.49
2018-07-28T15:48:54.182Z,26.58
2018-07-28T15:53:41.602Z,26.56
2018-07-28T15:58:25.463Z,26.50
2018-07-28T16:03:13.015Z,26.46
2018-07-28T16:09:25.831Z,26.44
2018-07-28T16:14:10.571Z,26.52
2018-07-28T16:18:58.968Z,26.52
2018-07-28T16:23:46.538Z,26.54
2018-07-28T16:28:30.146Z,26.53
2018-07-28T16:33:14.850Z,26.50
2018-07-28T16:37:59.121Z,26.52
2018-07-28T16:42:43.500Z,26.48
2018-07-28T16:47:28.359Z,26.46
2018-07-28T16:52:13.074Z,26.44
2018-07-28T16:56:57.518Z,26.38
2018-07-28T17:01:47.869Z,26.36
2018-07-28T17:06:31.502Z,26.35
2018-07-28T17:11:15.371Z,26.36
2018-07-28T17:15:59.980Z,26.40
2018-07-28T17:20:44.860Z,26.33
2018-07-28T17:25:28.429Z,26.32
2018-07-28T17:30:12.050Z,26.34
2018-07-28T17:34:57.844Z,26.38
2018-07-28T17:39:41.301Z,26.38
2018-07-28T17:44:24.965Z,26.32
2018-07-28T17:49:08.492Z,26.31
2018-07-28T17:53:52.352Z,26.24
2018-07-28T17:58:42.215Z,26.34
2018-07-28T18:03:25.998Z,26.19
2018-07-28T18:08:09.509Z,26.06
2018-07-28T18:12:55.006Z,25.53
2018-07-28T18:17:38.703Z,25.24
2018-07-28T18:22:22.486Z,25.54
2018-07-28T18:27:06.066Z,25.61
2018-07-28T18:31:49.613Z,25.81
2018-07-28T18:36:34.103Z,26.02
2018-07-28T18:41:21.088Z,26.07
2018-07-28T18:46:05.296Z,25.95
2018-07-28T18:50:48.885Z,25.24
2018-07-28T18:55:33.253Z,25.69
2018-07-28T19:00:17.938Z,25.33
2018-07-28T19:05:01.622Z,25.23
2018-07-28T19:09:53.648Z,25.32
2018-07-28T19:14:40.040Z,25.29
2018-07-28T19:19:23.589Z,25.13
2018-07-28T19:24:08.291Z,25.20
2018-07-28T19:28:57.256Z,25.39
2018-07-28T19:33:40.946Z,25.07
2018-07-28T19:38:24.518Z,25.24
2018-07-28T19:49:04.727Z,25.15
2018-07-28T19:53:52.391Z,25.39
2018-07-28T19:58:36.019Z,25.54
2018-07-28T20:03:22.747Z,25.10
2018-07-28T20:08:06.415Z,25.07
2018-07-28T20:12:51.115Z,25.20
2018-07-28T20:17:34.597Z,25.26
2018-07-28T20:22:18.282Z,24.82
2018-07-28T20:27:01.813Z,25.01
2018-07-28T20:31:45.401Z,25.42
2018-07-28T20:36:29.022Z,25.57
2018-07-28T20:41:12.618Z,25.55
2018-07-28T20:45:56.102Z,25.62
2018-07-28T20:50:39.662Z,25.55
2018-07-28T20:55:23.130Z,25.53
2018-07-28T21:00:07.562Z,25.55
2018-07-28T21:04:51.060Z,25.49
2018-07-28T21:09:34.630Z,25.50
2018-07-28T21:14:19.243Z,25.32
2018-07-28T21:19:02.646Z,25.54
2018-07-28T21:23:46.360Z,25.49
2018-07-28T21:28:29.682Z,25.44
2018-07-28T21:33:13.348Z,25.30
2018-07-28T21:37:56.935Z,25.28
2018-07-28T21:42:41.495Z,25.33
2018-07-28T21:47:25.095Z,25.35
2018-07-28T21:52:08.587Z,25.39
2018-07-28T21:56:52.821Z,25.33
2018-07-28T22:01:36.713Z,25.29
